Time;durP1;ratioP1;P1;durP2;ratioP2;P2;SDS_P1;SDS_P2;PMS_P1;PMS_P2;Temp;Humidity;BMP_temperature;BMP_pressure;BME280_temperature;BME280_humidity;BME280_pressure;Samples;Min_cycle;Max_cycle;Signal;HPM_P1;HPM_P2
2024/01/29 00:00:41;;;;;;;;;53.00;43.75;;;;;;;;4959654;28;45486;-63
2024/01/29 00:03:06;;;;;;;;;55.33;44.33;;;;;;;;4959896;28;45759;-63
2024/01/29 00:05:31;;;;;;;;;49.00;41.50;;;;;;;;4961285;28;45643;-62
2024/01/29 00:07:56;;;;;;;;;53.67;45.00;;;;;;;;4965884;28;45743;-63
2024/01/29 00:10:22;;;;;;;;;58.00;47.00;;;;;;;;4942021;28;45713;-62
2024/01/29 00:12:47;;;;;;;;;52.75;41.75;;;;;;;;4959174;28;45438;-62
2024/01/29 00:15:12;;;;;;;;;49.50;40.25;;;;;;;;4959328;28;46346;-62
2024/01/29 00:17:37;;;;;;;;;56.00;46.67;;;;;;;;4958088;28;45483;-62
2024/01/29 00:20:03;;;;;;;;;55.67;46.00;;;;;;;;4941919;28;45377;-62
2024/01/29 00:22:28;;;;;;;;;53.75;46.00;;;;;;;;4959107;28;45545;-62
2024/01/29 00:24:53;;;;;;;;;55.33;44.67;;;;;;;;4959381;28;45623;-63
2024/01/29 00:27:19;;;;;;;;;51.67;42.33;;;;;;;;4957522;28;45657;-62
2024/01/29 00:29:44;;;;;;;;;56.75;45.75;;;;;;;;4938832;28;45428;-63
2024/01/29 00:32:09;;;;;;;;;59.00;49.00;;;;;;;;4959379;28;45834;-62
2024/01/29 00:34:34;;;;;;;;;56.67;44.67;;;;;;;;4958988;28;46828;-63
2024/01/29 00:37:00;;;;;;;;;62.33;49.33;;;;;;;;4957972;28;45448;-62
2024/01/29 00:39:26;;;;;;;;;57.75;47.00;;;;;;;;4958706;28;45435;-62
2024/01/29 00:41:51;;;;;;;;;63.33;50.67;;;;;;;;4956449;28;45408;-62
2024/01/29 00:44:17;;;;;;;;;59.33;47.67;;;;;;;;4959169;28;45608;-62
2024/01/29 00:46:42;;;;;;;;;56.25;45.75;;;;;;;;4945270;28;45529;-63
2024/01/29 00:49:07;;;;;;;;;58.00;46.67;;;;;;;;4959325;28;45294;-62
2024/01/29 00:51:33;;;;;;;;;57.00;44.50;;;;;;;;4959244;28;45247;-62
2024/01/29 00:53:58;;;;;;;;;54.00;43.67;;;;;;;;4949606;28;46871;-62
2024/01/29 00:56:23;;;;;;;;;49.67;41.67;;;;;;;;4956657;28;45461;-63
2024/01/29 00:58:48;;;;;;;;;56.67;45.33;;;;;;;;4948209;28;45392;-62
2024/01/29 01:01:13;;;;;;;;;49.67;43.33;;;;;;;;4959051;28;45535;-62
2024/01/29 01:03:39;;;;;;;;;50.33;42.00;;;;;;;;4941822;28;48047;-62
2024/01/29 01:06:04;;;;;;;;;51.33;44.00;;;;;;;;4948117;28;45992;-62
2024/01/29 01:08:29;;;;;;;;;56.33;46.00;;;;;;;;4961694;28;45389;-63
2024/01/29 01:10:54;;;;;;;;;61.67;48.67;;;;;;;;4966199;28;45480;-62
2024/01/29 01:13:20;;;;;;;;;60.00;47.67;;;;;;;;4940993;28;46737;-62
2024/01/29 01:15:45;;;;;;;;;56.50;41.75;;;;;;;;4944684;28;45464;-62
2024/01/29 01:18:10;;;;;;;;;58.00;47.33;;;;;;;;4940515;28;45641;-62
2024/01/29 01:20:35;;;;;;;;;63.33;49.00;;;;;;;;4947383;28;45356;-62
2024/01/29 01:23:01;;;;;;;;;59.33;49.00;;;;;;;;4941913;28;47477;-62
2024/01/29 01:25:26;;;;;;;;;57.00;47.50;;;;;;;;4958821;28;45799;-62
2024/01/29 01:27:53;;;;;;;;;60.50;48.75;;;;;;;;4957618;28;45514;-62
2024/01/29 01:30:19;;;;;;;;;69.25;54.00;;;;;;;;4942354;28;45790;-62
2024/01/29 01:32:44;;;;;;;;;68.50;55.25;;;;;;;;4963312;28;45627;-62
2024/01/29 01:35:09;;;;;;;;;67.33;55.00;;;;;;;;4941053;28;45765;-62
2024/01/29 01:37:34;;;;;;;;;69.00;52.00;;;;;;;;4956678;28;45646;-62
2024/01/29 01:40:00;;;;;;;;;59.33;50.33;;;;;;;;4958846;28;45470;-62
2024/01/29 01:42:25;;;;;;;;;62.00;50.33;;;;;;;;4957695;28;46351;-62
2024/01/29 01:44:50;;;;;;;;;58.00;46.33;;;;;;;;4957338;28;45302;-62
2024/01/29 01:47:15;;;;;;;;;61.67;48.00;;;;;;;;4956696;28;45582;-62
2024/01/29 01:49:41;;;;;;;;;57.33;46.33;;;;;;;;4958512;28;45286;-62
2024/01/29 01:52:06;;;;;;;;;57.75;49.00;;;;;;;;4959701;28;46739;-62
2024/01/29 01:54:32;;;;;;;;;58.25;50.00;;;;;;;;4943802;28;45394;-62
2024/01/29 01:56:58;;;;;;;;;56.25;43.75;;;;;;;;4941849;28;45556;-62
2024/01/29 01:59:24;;;;;;;;;60.00;48.50;;;;;;;;4961889;28;45507;-62
2024/01/29 02:01:49;;;;;;;;;56.75;46.50;;;;;;;;4950825;28;47326;-62
2024/01/29 02:04:14;;;;;;;;;54.33;42.33;;;;;;;;4944490;28;45341;-62
2024/01/29 02:06:40;;;;;;;;;53.33;43.67;;;;;;;;4949494;28;45839;-62
2024/01/29 02:09:05;;;;;;;;;60.00;49.00;;;;;;;;4949604;28;45287;-62
2024/01/29 02:11:31;;;;;;;;;56.25;47.50;;;;;;;;4961188;28;45816;-62
2024/01/29 02:13:56;;;;;;;;;59.33;49.00;;;;;;;;4961697;28;45395;-62
2024/01/29 02:16:21;;;;;;;;;61.50;47.75;;;;;;;;4959905;28;45663;-62
2024/01/29 02:18:46;;;;;;;;;57.00;47.00;;;;;;;;4960657;28;45491;-62
2024/01/29 02:21:12;;;;;;;;;59.33;48.00;;;;;;;;4961480;28;46487;-62
2024/01/29 02:23:37;;;;;;;;;57.25;47.50;;;;;;;;4961291;28;45441;-62
2024/01/29 02:26:02;;;;;;;;;62.00;52.33;;;;;;;;4961029;28;45524;-62
2024/01/29 02:28:27;;;;;;;;;69.33;55.00;;;;;;;;4939475;28;45612;-62
2024/01/29 02:30:53;;;;;;;;;67.67;54.67;;;;;;;;4961205;28;45411;-62
2024/01/29 02:33:19;;;;;;;;;71.50;55.00;;;;;;;;4961349;28;45480;-62
2024/01/29 02:35:47;;;;;;;;;55.75;47.25;;;;;;;;4942689;28;45353;-62
2024/01/29 02:38:12;;;;;;;;;49.50;43.25;;;;;;;;4960744;28;45686;-62
2024/01/29 02:40:37;;;;;;;;;55.33;43.33;;;;;;;;4943489;28;47411;-62
2024/01/29 02:43:03;;;;;;;;;56.33;47.00;;;;;;;;4944020;28;45746;-62
2024/01/29 02:45:28;;;;;;;;;54.25;45.25;;;;;;;;4960981;28;45469;-62
2024/01/29 02:47:53;;;;;;;;;59.67;48.00;;;;;;;;4942565;28;45338;-62
2024/01/29 02:50:19;;;;;;;;;59.00;47.50;;;;;;;;4948330;28;47280;-62
2024/01/29 02:52:45;;;;;;;;;58.50;46.75;;;;;;;;4943574;28;45574;-62
2024/01/29 02:55:10;;;;;;;;;60.00;47.00;;;;;;;;4960040;28;45326;-62
2024/01/29 02:57:35;;;;;;;;;53.33;43.00;;;;;;;;4958663;28;45540;-62
2024/01/29 03:00:00;;;;;;;;;58.67;48.33;;;;;;;;4945613;28;47622;-62
2024/01/29 03:02:25;;;;;;;;;61.00;47.67;;;;;;;;4960449;28;45545;-62
2024/01/29 03:04:51;;;;;;;;;54.67;44.33;;;;;;;;4926338;28;45334;-62
2024/01/29 03:07:17;;;;;;;;;55.25;46.25;;;;;;;;4960482;28;45544;-62
2024/01/29 03:09:42;;;;;;;;;60.25;46.75;;;;;;;;4946043;28;47368;-62
2024/01/29 03:12:08;;;;;;;;;46.33;40.33;;;;;;;;4959513;28;45377;-62
2024/01/29 03:14:33;;;;;;;;;55.50;45.75;;;;;;;;4942002;28;45628;-62
2024/01/29 03:16:59;;;;;;;;;52.50;42.50;;;;;;;;4949977;28;45554;-62
2024/01/29 03:19:24;;;;;;;;;55.33;45.33;;;;;;;;4960623;28;45799;-62
2024/01/29 03:21:49;;;;;;;;;50.67;42.33;;;;;;;;4952542;28;45486;-63
2024/01/29 03:24:15;;;;;;;;;52.00;40.33;;;;;;;;4968965;28;45344;-62
2024/01/29 03:26:41;;;;;;;;;51.75;43.25;;;;;;;;4947721;28;45857;-62
2024/01/29 03:29:06;;;;;;;;;56.00;47.50;;;;;;;;4942695;28;47112;-62
2024/01/29 03:31:31;;;;;;;;;61.00;48.25;;;;;;;;4959633;28;45405;-62
2024/01/29 03:33:57;;;;;;;;;58.75;48.25;;;;;;;;4960429;28;45361;-62
2024/01/29 03:36:22;;;;;;;;;59.33;47.00;;;;;;;;4959820;28;45535;-62
2024/01/29 03:38:47;;;;;;;;;54.50;44.25;;;;;;;;4960134;28;45544;-62
2024/01/29 03:41:12;;;;;;;;;56.00;44.33;;;;;;;;4942750;28;45323;-62
2024/01/29 03:43:38;;;;;;;;;50.25;42.75;;;;;;;;4959445;28;45368;-62
2024/01/29 03:46:03;;;;;;;;;48.00;41.75;;;;;;;;4941865;28;45492;-62
2024/01/29 03:48:28;;;;;;;;;47.50;37.75;;;;;;;;4959844;28;45388;-62
2024/01/29 03:50:54;;;;;;;;;41.25;36.75;;;;;;;;4959866;28;45669;-62
2024/01/29 03:53:19;;;;;;;;;46.25;39.75;;;;;;;;4960284;28;45306;-62
2024/01/29 03:55:44;;;;;;;;;54.00;46.00;;;;;;;;4959065;28;45361;-62
2024/01/29 03:58:09;;;;;;;;;60.75;49.50;;;;;;;;4957129;28;45653;-62
2024/01/29 04:00:35;;;;;;;;;60.33;49.67;;;;;;;;4958365;28;45378;-62
2024/01/29 04:03:02;;;;;;;;;60.67;51.67;;;;;;;;4959986;28;45562;-62
2024/01/29 04:05:28;;;;;;;;;54.50;46.25;;;;;;;;4959744;28;45409;-62
2024/01/29 04:07:53;;;;;;;;;52.00;42.00;;;;;;;;4943351;28;47095;-62
2024/01/29 04:10:18;;;;;;;;;44.00;38.33;;;;;;;;4971193;28;45437;-62
2024/01/29 04:12:44;;;;;;;;;42.50;36.75;;;;;;;;4958565;28;45594;-62
2024/01/29 04:15:09;;;;;;;;;41.67;38.33;;;;;;;;4958449;28;45537;-62
2024/01/29 04:17:34;;;;;;;;;40.67;36.00;;;;;;;;4959278;28;46576;-62
2024/01/29 04:20:00;;;;;;;;;37.00;36.00;;;;;;;;4959229;28;45409;-62
2024/01/29 04:22:25;;;;;;;;;34.75;32.25;;;;;;;;4961587;28;45428;-62
2024/01/29 04:24:51;;;;;;;;;44.50;39.75;;;;;;;;4959291;28;45868;-62
2024/01/29 04:27:16;;;;;;;;;43.50;38.75;;;;;;;;4958969;28;46328;-62
2024/01/29 04:29:41;;;;;;;;;50.33;44.00;;;;;;;;4960455;28;45432;-62
2024/01/29 04:32:06;;;;;;;;;54.33;45.33;;;;;;;;4959728;28;45386;-62
2024/01/29 04:34:32;;;;;;;;;45.00;40.00;;;;;;;;4959366;28;45444;-62
2024/01/29 04:36:57;;;;;;;;;40.00;36.00;;;;;;;;4941586;28;46982;-62
2024/01/29 04:39:22;;;;;;;;;42.67;36.67;;;;;;;;4958914;28;45422;-62
2024/01/29 04:41:47;;;;;;;;;42.00;32.00;;;;;;;;4958369;28;45300;-62
2024/01/29 04:44:14;;;;;;;;;25.00;24.50;;;;;;;;4956431;28;45585;-62
2024/01/29 04:46:39;;;;;;;;;39.75;32.25;;;;;;;;4957635;28;45506;-62
2024/01/29 04:49:05;;;;;;;;;35.00;31.00;;;;;;;;4959314;28;45388;-62
2024/01/29 04:51:30;;;;;;;;;34.67;30.00;;;;;;;;4958980;28;45334;-62
2024/01/29 04:53:55;;;;;;;;;34.75;31.75;;;;;;;;4941480;28;45390;-62
2024/01/29 04:56:21;;;;;;;;;34.75;30.50;;;;;;;;4960895;28;46194;-62
2024/01/29 04:58:46;;;;;;;;;30.50;30.50;;;;;;;;4959287;28;45307;-62
2024/01/29 05:01:11;;;;;;;;;24.25;23.00;;;;;;;;4959048;28;45466;-62
2024/01/29 05:03:36;;;;;;;;;34.00;29.67;;;;;;;;4959126;28;45644;-62
2024/01/29 05:06:02;;;;;;;;;29.00;24.00;;;;;;;;4956986;28;46202;-62
2024/01/29 05:08:27;;;;;;;;;34.25;30.75;;;;;;;;4960785;28;45979;-62
2024/01/29 05:10:52;;;;;;;;;31.00;21.67;;;;;;;;4969360;28;45393;-62
2024/01/29 05:13:17;;;;;;;;;23.00;21.67;;;;;;;;4957161;28;45434;-62
2024/01/29 05:15:43;;;;;;;;;30.33;25.67;;;;;;;;4958587;28;46421;-62
2024/01/29 05:18:08;;;;;;;;;25.25;23.75;;;;;;;;4958771;28;45439;-62
2024/01/29 05:20:34;;;;;;;;;30.00;26.00;;;;;;;;4959023;28;45453;-62
2024/01/29 05:22:59;;;;;;;;;21.50;20.25;;;;;;;;4964158;28;45547;-62
2024/01/29 05:25:24;;;;;;;;;23.75;23.25;;;;;;;;4958895;28;45447;-62
2024/01/29 05:27:49;;;;;;;;;30.00;28.00;;;;;;;;4954813;28;45559;-62
2024/01/29 05:30:15;;;;;;;;;26.50;24.00;;;;;;;;4962406;28;45439;-62
2024/01/29 05:32:40;;;;;;;;;36.75;32.50;;;;;;;;4944497;28;45453;-62
2024/01/29 05:35:06;;;;;;;;;26.00;23.50;;;;;;;;4962244;28;45546;-62
2024/01/29 05:37:33;;;;;;;;;22.00;21.75;;;;;;;;4961722;28;45539;-62
2024/01/29 05:39:59;;;;;;;;;26.25;24.50;;;;;;;;4962045;28;45556;-62
2024/01/29 05:42:24;;;;;;;;;23.00;22.75;;;;;;;;4960978;28;45437;-62
2024/01/29 05:44:50;;;;;;;;;25.50;23.00;;;;;;;;4944037;28;47102;-62
2024/01/29 05:47:16;;;;;;;;;27.25;23.00;;;;;;;;4960242;28;45393;-62
2024/01/29 05:49:41;;;;;;;;;27.00;24.75;;;;;;;;4962392;28;45310;-62
2024/01/29 05:52:06;;;;;;;;;21.67;18.33;;;;;;;;4961199;28;45623;-62
2024/01/29 05:54:31;;;;;;;;;24.33;20.33;;;;;;;;4961311;28;46628;-62
2024/01/29 05:56:57;;;;;;;;;26.33;25.67;;;;;;;;4959231;28;45524;-62
2024/01/29 05:59:22;;;;;;;;;23.00;22.25;;;;;;;;4961230;28;45404;-62
2024/01/29 06:01:47;;;;;;;;;30.50;27.50;;;;;;;;4943417;28;45487;-62
2024/01/29 06:04:12;;;;;;;;;23.67;22.67;;;;;;;;4962013;28;45423;-62
2024/01/29 06:06:38;;;;;;;;;26.67;25.00;;;;;;;;4961089;28;45503;-62
2024/01/29 06:09:05;;;;;;;;;20.33;19.67;;;;;;;;4967926;28;45873;-62
2024/01/29 06:11:30;;;;;;;;;25.75;23.50;;;;;;;;4964644;28;45485;-62
2024/01/29 06:13:56;;;;;;;;;26.25;23.00;;;;;;;;4959291;28;45883;-62
2024/01/29 06:16:21;;;;;;;;;25.75;23.25;;;;;;;;4959991;28;45576;-62
2024/01/29 06:18:47;;;;;;;;;23.25;20.50;;;;;;;;4942967;28;45567;-62
2024/01/29 06:21:12;;;;;;;;;23.50;20.75;;;;;;;;4960340;28;45560;-62
2024/01/29 06:23:37;;;;;;;;;23.25;19.00;;;;;;;;4942758;28;47175;-62
2024/01/29 06:26:03;;;;;;;;;18.00;14.00;;;;;;;;4961717;28;45400;-62
2024/01/29 06:28:28;;;;;;;;;25.25;23.50;;;;;;;;4944463;28;45359;-62
2024/01/29 06:30:54;;;;;;;;;21.33;21.33;;;;;;;;4961975;28;45317;-62
2024/01/29 06:33:19;;;;;;;;;28.67;25.67;;;;;;;;4960622;28;46255;-62
2024/01/29 06:35:44;;;;;;;;;24.33;23.00;;;;;;;;4944073;28;45443;-62
2024/01/29 06:38:09;;;;;;;;;27.33;23.00;;;;;;;;4961112;28;45527;-62
2024/01/29 06:40:34;;;;;;;;;23.33;20.67;;;;;;;;4961424;28;45235;-62
2024/01/29 06:43:00;;;;;;;;;25.00;23.67;;;;;;;;4960496;28;45395;-62
2024/01/29 06:45:25;;;;;;;;;25.00;23.67;;;;;;;;4961418;28;45325;-62
2024/01/29 06:47:50;;;;;;;;;23.33;21.00;;;;;;;;4961684;28;45311;-62
2024/01/29 06:50:16;;;;;;;;;23.00;21.00;;;;;;;;4961477;28;45329;-62
2024/01/29 06:52:41;;;;;;;;;30.50;24.25;;;;;;;;4943935;28;46968;-62
2024/01/29 06:55:07;;;;;;;;;25.00;24.50;;;;;;;;4961478;28;45629;-62
2024/01/29 06:57:32;;;;;;;;;56.00;46.75;;;;;;;;4960501;28;45745;-62
2024/01/29 06:59:57;;;;;;;;;47.33;41.33;;;;;;;;4961501;28;45413;-62
2024/01/29 07:02:22;;;;;;;;;36.00;32.33;;;;;;;;4961280;28;45353;-62
2024/01/29 07:04:48;;;;;;;;;29.50;24.75;;;;;;;;4961516;28;45321;-62
2024/01/29 07:07:13;;;;;;;;;24.25;22.75;;;;;;;;4961072;28;45555;-62
2024/01/29 07:09:39;;;;;;;;;31.75;27.00;;;;;;;;4973342;28;45706;-62
2024/01/29 07:12:05;;;;;;;;;26.75;24.00;;;;;;;;4942251;28;47462;-62
2024/01/29 07:15:02;;;;;;;;;;;;;;;;;;;;;
2024/01/29 07:20:39;;;;;;;;;;;;;;;;;;;;;
2024/01/29 07:33:16;;;;;;;;;39.00;37.25;;;;;;;;4863037;29;45662;-65
2024/01/29 07:56:57;;;;;;;;;19.00;17.00;;;;;;;;5187267;23;45411;-68
2024/01/29 07:59:23;;;;;;;;;51.50;40.50;;;;;;;;4942872;28;45450;-64
2024/01/29 08:01:48;;;;;;;;;44.25;39.00;;;;;;;;4951897;28;45374;-64
2024/01/29 08:04:13;;;;;;;;;38.00;35.50;;;;;;;;4939248;28;45548;-64
2024/01/29 08:06:39;;;;;;;;;32.67;27.00;;;;;;;;4965320;28;45393;-64
2024/01/29 08:09:04;;;;;;;;;26.00;24.00;;;;;;;;4947354;28;45458;-64
2024/01/29 08:11:30;;;;;;;;;25.00;23.75;;;;;;;;4965992;28;45400;-63
2024/01/29 08:13:55;;;;;;;;;25.75;23.75;;;;;;;;4931200;28;45384;-65
2024/01/29 08:16:20;;;;;;;;;26.00;23.00;;;;;;;;4948948;28;47312;-65
2024/01/29 08:18:46;;;;;;;;;25.75;21.75;;;;;;;;4966507;28;45412;-65
2024/01/29 08:21:11;;;;;;;;;23.67;22.67;;;;;;;;4971549;28;45430;-65
2024/01/29 08:23:37;;;;;;;;;24.25;21.75;;;;;;;;4947684;28;45746;-64
2024/01/29 08:26:02;;;;;;;;;30.50;26.25;;;;;;;;4964153;28;45974;-64
2024/01/29 08:28:27;;;;;;;;;24.00;23.25;;;;;;;;4973302;28;45297;-63
2024/01/29 08:30:55;;;;;;;;;46.00;36.33;;;;;;;;4965662;28;45563;-65
2024/01/29 08:33:20;;;;;;;;;40.75;35.50;;;;;;;;4952884;28;46692;-63
2024/01/29 08:35:45;;;;;;;;;47.33;41.33;;;;;;;;4957809;28;47802;-70
2024/01/29 08:38:10;;;;;;;;;32.33;32.33;;;;;;;;4978550;28;45618;-74
2024/01/29 08:40:37;;;;;;;;;25.67;24.67;;;;;;;;4967240;28;47440;-73
2024/01/29 08:43:02;;;;;;;;;29.25;24.75;;;;;;;;4973664;28;45763;-72
2024/01/29 08:45:27;;;;;;;;;26.33;24.00;;;;;;;;4974122;28;46461;-72
2024/01/29 08:47:52;;;;;;;;;31.33;28.67;;;;;;;;4976093;28;45534;-72
2024/01/29 08:50:18;;;;;;;;;33.33;30.67;;;;;;;;4969641;28;45527;-72
2024/01/29 08:52:43;;;;;;;;;31.33;27.00;;;;;;;;4973309;28;45285;-72
2024/01/29 08:55:08;;;;;;;;;31.33;25.33;;;;;;;;4969140;28;46126;-73
2024/01/29 08:57:33;;;;;;;;;25.75;20.50;;;;;;;;4966934;28;46016;-72
2024/01/29 08:59:58;;;;;;;;;34.25;30.25;;;;;;;;4973748;28;45608;-72
2024/01/29 09:02:27;;;;;;;;;47.00;39.00;;;;;;;;4977053;28;45630;-74
2024/01/29 09:04:53;;;;;;;;;43.25;37.00;;;;;;;;4974127;28;45420;-73
2024/01/29 09:07:18;;;;;;;;;49.00;41.25;;;;;;;;4979700;28;45500;-74
2024/01/29 09:09:44;;;;;;;;;32.33;26.67;;;;;;;;4979396;28;45375;-72
2024/01/29 09:12:09;;;;;;;;;31.00;26.50;;;;;;;;4975291;28;45583;-71
2024/01/29 09:14:34;;;;;;;;;25.00;24.33;;;;;;;;4975638;28;45488;-67
2024/01/29 09:16:59;;;;;;;;;26.67;24.00;;;;;;;;4981145;28;45346;-72
2024/01/29 09:19:24;;;;;;;;;29.33;25.33;;;;;;;;4981230;28;45427;-72
2024/01/29 09:21:50;;;;;;;;;27.00;25.25;;;;;;;;4974530;28;45385;-72
2024/01/29 09:24:16;;;;;;;;;31.75;27.25;;;;;;;;4974706;28;45326;-78
2024/01/29 09:26:41;;;;;;;;;26.50;25.50;;;;;;;;4976191;28;47457;-78
2024/01/29 09:29:06;;;;;;;;;32.00;27.00;;;;;;;;4970081;28;45586;-76
2024/01/29 09:31:32;;;;;;;;;31.00;27.00;;;;;;;;4967871;28;45367;-75
2024/01/29 09:33:57;;;;;;;;;51.50;40.25;;;;;;;;4972872;28;45574;-75
2024/01/29 09:36:23;;;;;;;;;56.00;45.00;;;;;;;;4975155;28;45373;-74
2024/01/29 09:38:48;;;;;;;;;45.00;38.00;;;;;;;;4971987;28;45472;-76
2024/01/29 09:41:13;;;;;;;;;49.33;39.67;;;;;;;;4955614;28;45528;-80
2024/01/29 09:43:39;;;;;;;;;30.50;27.75;;;;;;;;4978233;28;45483;-80
2024/01/29 09:46:04;;;;;;;;;16.50;16.50;;;;;;;;4955794;28;45580;-79
2024/01/29 09:48:32;;;;;;;;;22.50;21.50;;;;;;;;4973273;28;45530;-79
2024/01/29 09:50:58;;;;;;;;;20.00;18.00;;;;;;;;4957571;28;45509;-75
2024/01/29 09:53:23;;;;;;;;;20.50;18.00;;;;;;;;4973008;28;45494;-75
2024/01/29 09:55:49;;;;;;;;;28.00;25.67;;;;;;;;4967560;28;45506;-75
2024/01/29 09:58:15;;;;;;;;;27.25;20.25;;;;;;;;4966557;28;45566;-75
2024/01/29 10:00:40;;;;;;;;;25.33;23.00;;;;;;;;4971927;28;45834;-74
2024/01/29 10:03:07;;;;;;;;;21.00;18.25;;;;;;;;4970749;28;45461;-69
2024/01/29 10:05:33;;;;;;;;;32.75;30.75;;;;;;;;4968837;28;45387;-76
2024/01/29 10:07:58;;;;;;;;;26.00;25.00;;;;;;;;4967751;28;45776;-75
2024/01/29 10:10:24;;;;;;;;;38.00;31.50;;;;;;;;4968609;28;45426;-75
2024/01/29 10:12:49;;;;;;;;;30.50;27.75;;;;;;;;4966098;28;45450;-74
2024/01/29 10:15:14;;;;;;;;;28.67;23.67;;;;;;;;4974825;28;45307;-74
2024/01/29 10:17:40;;;;;;;;;26.50;21.50;;;;;;;;4977597;28;45342;-74
2024/01/29 10:20:17;;;;;;;;;22.33;22.33;;;;;;;;4969063;28;45689;-75
2024/01/29 10:22:42;;;;;;;;;21.50;19.50;;;;;;;;4976233;28;45559;-75
2024/01/29 10:25:09;;;;;;;;;22.00;21.33;;;;;;;;4952905;28;45971;-75
2024/01/29 10:27:34;;;;;;;;;29.75;27.75;;;;;;;;4975672;28;45429;-74
2024/01/29 10:30:00;;;;;;;;;26.00;24.50;;;;;;;;4956003;28;45535;-75
2024/01/29 10:32:25;;;;;;;;;28.67;27.67;;;;;;;;4969835;28;45503;-75
2024/01/29 10:34:50;;;;;;;;;31.33;27.00;;;;;;;;4974946;28;45510;-74
2024/01/29 10:37:16;;;;;;;;;33.75;29.50;;;;;;;;4978705;28;45326;-74
2024/01/29 10:39:41;;;;;;;;;30.00;28.50;;;;;;;;4958768;28;45713;-75
2024/01/29 10:42:08;;;;;;;;;32.25;29.25;;;;;;;;4960409;28;45466;-74
2024/01/29 10:44:35;;;;;;;;;29.75;26.00;;;;;;;;4974960;28;45726;-74
2024/01/29 10:47:04;;;;;;;;;26.00;25.25;;;;;;;;4979963;28;45361;-74
2024/01/29 10:49:31;;;;;;;;;27.00;25.25;;;;;;;;4977303;28;45539;-75
2024/01/29 10:51:57;;;;;;;;;30.50;25.50;;;;;;;;4979003;28;45457;-74
2024/01/29 10:54:22;;;;;;;;;28.00;26.50;;;;;;;;4979913;28;45732;-74
2024/01/29 10:56:48;;;;;;;;;34.75;29.25;;;;;;;;4969367;28;45483;-74
2024/01/29 10:59:14;;;;;;;;;25.25;23.00;;;;;;;;4976332;28;45378;-74
2024/01/29 11:01:40;;;;;;;;;24.75;19.25;;;;;;;;4967269;28;45527;-75
2024/01/29 11:04:06;;;;;;;;;29.75;26.00;;;;;;;;4954840;28;45572;-75
2024/01/29 11:06:41;;;;;;;;;22.75;22.75;;;;;;;;4971199;28;45922;-75
2024/01/29 11:09:12;;;;;;;;;24.25;22.25;;;;;;;;4972773;28;45393;-74
2024/01/29 11:11:38;;;;;;;;;31.25;26.00;;;;;;;;4969381;28;46169;-73
2024/01/29 11:14:03;;;;;;;;;28.00;25.50;;;;;;;;4958703;28;45407;-74
2024/01/29 11:16:29;;;;;;;;;32.00;28.00;;;;;;;;4978390;28;45530;-76
2024/01/29 11:18:54;;;;;;;;;26.00;23.67;;;;;;;;4979642;28;45581;-73
2024/01/29 11:21:25;;;;;;;;;25.00;21.67;;;;;;;;4958682;28;46324;-75
2024/01/29 11:23:52;;;;;;;;;27.25;22.00;;;;;;;;4978112;28;45704;-74
2024/01/29 11:26:18;;;;;;;;;19.50;19.00;;;;;;;;4953411;28;45513;-77
2024/01/29 11:28:44;;;;;;;;;20.75;17.75;;;;;;;;4977991;28;45455;-77
2024/01/29 11:31:11;;;;;;;;;21.00;19.00;;;;;;;;4971215;28;46834;-75
2024/01/29 11:33:36;;;;;;;;;19.00;18.00;;;;;;;;4966340;28;45660;-77
2024/01/29 11:36:12;;;;;;;;;16.00;14.67;;;;;;;;4977720;28;45672;-77
2024/01/29 11:38:37;;;;;;;;;24.25;19.75;;;;;;;;4961319;28;45446;-78
2024/01/29 11:41:02;;;;;;;;;22.25;19.25;;;;;;;;4965751;28;45681;-76
2024/01/29 11:43:28;;;;;;;;;22.67;19.33;;;;;;;;4969041;28;45951;-76
2024/01/29 11:45:53;;;;;;;;;22.50;21.50;;;;;;;;4960549;28;45322;-78
2024/01/29 11:48:20;;;;;;;;;15.50;13.75;;;;;;;;4974106;28;45373;-78
2024/01/29 11:50:46;;;;;;;;;19.25;18.50;;;;;;;;4970506;28;45697;-75
2024/01/29 11:53:12;;;;;;;;;14.25;14.25;;;;;;;;4960441;28;45489;-75
2024/01/29 11:55:38;;;;;;;;;13.25;13.25;;;;;;;;4975169;28;45507;-76
2024/01/29 11:58:03;;;;;;;;;15.00;14.25;;;;;;;;4976533;28;45583;-75
2024/01/29 12:00:29;;;;;;;;;14.67;13.67;;;;;;;;4978324;28;46076;-75
2024/01/29 12:02:54;;;;;;;;;14.00;13.75;;;;;;;;4959906;28;45477;-75
2024/01/29 12:05:19;;;;;;;;;17.00;15.25;;;;;;;;4972345;28;45359;-75
2024/01/29 12:07:45;;;;;;;;;13.50;13.50;;;;;;;;4974250;28;45586;-76
2024/01/29 12:10:10;;;;;;;;;13.00;12.25;;;;;;;;4953758;28;48352;-76
2024/01/29 12:12:36;;;;;;;;;16.67;15.00;;;;;;;;4978690;28;45388;-76
2024/01/29 12:15:01;;;;;;;;;17.00;16.75;;;;;;;;4978384;28;45720;-76
2024/01/29 12:17:27;;;;;;;;;14.00;14.00;;;;;;;;4977147;28;45592;-75
2024/01/29 12:19:52;;;;;;;;;21.75;16.50;;;;;;;;4958739;28;47745;-75
2024/01/29 12:22:21;;;;;;;;;15.25;14.25;;;;;;;;4965376;28;45796;-76
2024/01/29 12:24:46;;;;;;;;;16.00;16.00;;;;;;;;4972769;28;45434;-74
2024/01/29 12:27:12;;;;;;;;;16.00;14.25;;;;;;;;4948435;28;45735;-69
2024/01/29 12:29:38;;;;;;;;;14.75;12.25;;;;;;;;4946996;28;45498;-75
2024/01/29 12:32:08;;;;;;;;;15.50;13.00;;;;;;;;4974015;28;45632;-75
2024/01/29 12:34:33;;;;;;;;;14.00;13.00;;;;;;;;4975267;28;45501;-75
2024/01/29 12:36:58;;;;;;;;;11.67;9.67;;;;;;;;4973094;28;45495;-75
2024/01/29 12:39:23;;;;;;;;;7.67;7.67;;;;;;;;4975323;28;46441;-75
2024/01/29 12:41:49;;;;;;;;;6.50;4.50;;;;;;;;4950877;28;45704;-75
2024/01/29 12:44:15;;;;;;;;;12.00;9.00;;;;;;;;4969484;28;45436;-77
2024/01/29 12:46:40;;;;;;;;;8.25;6.00;;;;;;;;4961127;28;45811;-76
2024/01/29 12:49:05;;;;;;;;;7.33;7.00;;;;;;;;4966196;28;46305;-75
2024/01/29 12:51:31;;;;;;;;;10.67;7.00;;;;;;;;4967830;28;45836;-75
2024/01/29 12:53:56;;;;;;;;;8.00;8.00;;;;;;;;4971633;28;45780;-77
2024/01/29 12:56:22;;;;;;;;;7.00;7.00;;;;;;;;4949846;28;45795;-77
2024/01/29 12:58:47;;;;;;;;;7.00;6.50;;;;;;;;4970253;28;45497;-78
2024/01/29 13:01:12;;;;;;;;;12.67;9.67;;;;;;;;4945607;28;45634;-75
2024/01/29 13:03:39;;;;;;;;;8.00;7.00;;;;;;;;4963412;28;45856;-73
2024/01/29 13:06:05;;;;;;;;;9.00;8.00;;;;;;;;4973006;28;45629;-72
2024/01/29 13:08:31;;;;;;;;;6.75;6.75;;;;;;;;4972457;28;46202;-73
2024/01/29 13:10:56;;;;;;;;;11.00;7.75;;;;;;;;4968411;28;45911;-67
2024/01/29 13:13:22;;;;;;;;;10.00;8.00;;;;;;;;4974489;28;45783;-69
2024/01/29 13:15:49;;;;;;;;;6.33;6.33;;;;;;;;4965711;28;45663;-71
2024/01/29 13:18:14;;;;;;;;;7.00;6.50;;;;;;;;4974531;28;45460;-74
2024/01/29 13:20:41;;;;;;;;;8.33;6.67;;;;;;;;4973779;28;45496;-76
2024/01/29 13:23:09;;;;;;;;;7.00;7.00;;;;;;;;4967598;28;45515;-77
2024/01/29 13:25:34;;;;;;;;;5.50;5.50;;;;;;;;4976171;28;45412;-76
2024/01/29 13:27:59;;;;;;;;;9.33;7.00;;;;;;;;4973248;28;45552;-77
2024/01/29 13:30:24;;;;;;;;;6.00;6.00;;;;;;;;4954586;28;45650;-76
2024/01/29 13:32:50;;;;;;;;;9.67;7.00;;;;;;;;4974870;28;45440;-76
2024/01/29 13:35:15;;;;;;;;;8.00;7.00;;;;;;;;4972990;28;46113;-76
2024/01/29 13:37:40;;;;;;;;;7.00;7.00;;;;;;;;4976036;28;46152;-77
2024/01/29 13:40:05;;;;;;;;;7.67;6.00;;;;;;;;4966609;28;45420;-73
2024/01/29 13:42:32;;;;;;;;;7.00;6.00;;;;;;;;4970233;28;45698;-73
2024/01/29 13:44:57;;;;;;;;;6.00;6.00;;;;;;;;4972322;28;45487;-72
2024/01/29 13:47:23;;;;;;;;;6.67;6.00;;;;;;;;4970184;28;45561;-72
2024/01/29 13:49:48;;;;;;;;;6.00;6.00;;;;;;;;4967686;28;45506;-74
2024/01/29 13:52:13;;;;;;;;;7.67;6.00;;;;;;;;4977113;28;45688;-73
2024/01/29 13:54:40;;;;;;;;;6.00;6.00;;;;;;;;4968875;28;45913;-73
2024/01/29 13:57:05;;;;;;;;;11.75;9.75;;;;;;;;4976505;28;46490;-73
2024/01/29 13:59:32;;;;;;;;;8.33;8.33;;;;;;;;4975010;28;45749;-73
2024/01/29 14:01:57;;;;;;;;;10.75;9.50;;;;;;;;4977506;28;45518;-73
2024/01/29 14:04:22;;;;;;;;;7.33;7.33;;;;;;;;4977194;28;45719;-73
2024/01/29 14:07:00;;;;;;;;;8.00;7.67;;;;;;;;4973932;28;45595;-74
2024/01/29 14:09:26;;;;;;;;;10.25;7.00;;;;;;;;4972025;28;45603;-73
2024/01/29 14:11:51;;;;;;;;;7.50;7.00;;;;;;;;4976930;28;45660;-72
2024/01/29 14:14:17;;;;;;;;;7.33;7.33;;;;;;;;4959876;28;45843;-72
2024/01/29 14:16:42;;;;;;;;;7.50;6.00;;;;;;;;4973981;28;45835;-74
2024/01/29 14:19:07;;;;;;;;;7.67;7.67;;;;;;;;4975892;28;45646;-74
2024/01/29 14:21:32;;;;;;;;;8.00;8.00;;;;;;;;4969353;28;45480;-75
2024/01/29 14:23:57;;;;;;;;;8.00;6.33;;;;;;;;4971876;28;45495;-75
2024/01/29 14:26:23;;;;;;;;;8.00;6.67;;;;;;;;4975638;28;47666;-75
2024/01/29 14:28:48;;;;;;;;;7.00;7.00;;;;;;;;4975122;28;45737;-75
2024/01/29 14:31:13;;;;;;;;;7.67;7.67;;;;;;;;4974067;28;45628;-75
2024/01/29 14:33:38;;;;;;;;;6.67;6.00;;;;;;;;4977094;28;45676;-75
2024/01/29 14:36:04;;;;;;;;;8.00;8.00;;;;;;;;4976442;28;46069;-75
2024/01/29 14:38:31;;;;;;;;;8.00;7.00;;;;;;;;4976109;28;45495;-75
2024/01/29 14:40:56;;;;;;;;;6.00;6.00;;;;;;;;4974126;28;45790;-73
2024/01/29 14:43:21;;;;;;;;;9.00;8.00;;;;;;;;4965148;28;46642;-76
2024/01/29 14:45:47;;;;;;;;;9.00;8.00;;;;;;;;4972195;28;46042;-76
2024/01/29 14:48:12;;;;;;;;;7.00;7.00;;;;;;;;4968612;28;45663;-76